SNN weather

Shannon Airport
Shannon, County Clare, Ireland

Public forecast

Using degrees Celsius for public forecast. Weather courtesy of forecast.io.

Current aviation weather report (METAR) for Shannon Airport

Retrieved 2019/12/12 12:30 UTC (54 minutes ago):

EINN 121230Z 25010KT 9999 FEW012 SCT018CB BKN046 09/07 Q0982 NOSIG

Aviation forecast (TAF) for Shannon Airport

Retrieved 2019/12/12 12:09 UTC (1 hour ago):

TAF EINN 121100Z 1212/1312 26015KT 9999 SCT015 BKN025 TEMPO 1212/1216 27017G27KT TEMPO 1212/1218 4000 SHRA BKN010 SCT018CB BECMG 1216/1218 28018G28KT TEMPO 1218/1302 -SHRA SCT012 SCT018CB TEMPO 1221/1307 28025G40KT